Animas, NM

8:50 AM MDT on July 29, 2014 (GMT -0600)
Rodeo, NM (KNMRODEO2) Elev 4236 ft | 31.80 °N, 109.02 °W | Change Station

Current weather conditions updated 0 second ago

Clear
Clear
76.8 °F
Feels Like 79 °F
N
0.0
Wind Variable Wind from West
Gusts 1.0 mph

Today is forecast to be Warmer than yesterday.

Today
High -- | Low -- °F
--% Chance of Precip.
Yesterday
High -- | Low -- °F
Precip. -- in
6:28 AM 8:14 PM
Waxing Crescent, 6% visible
Pressure 30.00 in
Visibility 10.0 miles
Clouds Clear
Heat Index 79 °F
Dew Point 63 °F
Humidity 62%
Rainfall 0.00 in
Snow Depth Not available.
UV 1 out of 12
Pollen 2.70 out of 12
Air Quality Not available.
Flu Activity Not available.
METAR KDUG 291356Z AUTO 00000KT 10SM CLR 22/18 A3021 RMK AO2 SLP157 T02220178

More Conditions Fewer Conditions

Pressure 30.00 in
Visibility 10.0 miles
Clouds Clear
Heat Index 79 °F
Dew Point 63 °F
Humidity 62%
Rainfall 0.00 in
Snow Depth Not available.
UV 1 out of 12
Pollen 2.70 out of 12
Air Quality Not available.
Flu Activity Not available.
METAR KDUG 291356Z AUTO 00000KT 10SM CLR 22/18 A3021 RMK AO2 SLP157 T02220178

More Conditions Fewer Conditions

10-Day Weather Forecast

Almanac

Astronomy

Jul. 29, 2014 Rise Set
Actual Time 6:28 AM MDT 8:14 PM MDT
Civil Twilight 6:01 AM MDT 8:40 PM MDT
Nautical Twilight 5:29 AM MDT 9:13 PM MDT
Astronomical Twilight 4:55 AM MDT 9:47 PM MDT
Moon 8:55 AM MDT 9:42 PM MDT
Length of Visible Light 14h 39m
Length of Day
13h 45m
Tomorrow will be 1m 24s shorter.
Waxing Crescent, 6% of the Moon is Illuminated
Today
Waxing Crescent
Aug 3
First Quarter
Aug 10
Full
Aug 17
Last Quarter
Aug 25
New

Today's Extremes

State Highs State Lows

Community

WunderPhotos

Upload Photos

1,738,749 photos uploaded!

Nearby

Snow Depth

Station Depth Elevation
McKnight Cabin 0 in 9240 ft
Silver Creek Divide 11 in 9000 ft
Sierra Blanca 1 in 10280 ft
Santa Fe 2 in 11445 ft
Elk Cabin 134 in 8210 ft

Earthquake Activity

City Distance Mag. Time & Date
No recent earthquake activity has been reported nearby.
Minimum magnitude displayed is 2.5.

Coastal Water Temperatures

Place Temperature
No Stations Reporting

Nearby Weather Stations

Station Location Temp. Heat Index Dew Point Humidity Wind Precip. Elev Updated Type
Rodeo Airport, Rodeo, NM 79.3 °F 77 °F - - SSE  at  3.1 mph 0.00 in / hr 4157 ft 8:50 AM MDT Rapid Fire
Rodeo, NM, Rodeo, NM 76.8 °F 79 °F 63 °F 62% West  at  0.0 mph 0.00 in / hr 4236 ft 8:50 AM MDT Rapid Fire
Horseshoe Creek, Portal, AZ 79.0 °F 80 °F 62 °F 57% ENE  at  1.0 mph 0.00 in / hr 4235 ft 7:46 AM MST Rapid Fire
Portal - Limestone Mtn, Portal, AZ 74.9 °F 77 °F 59 °F 57% NNW  at  0.0 mph 0.00 in / hr 5367 ft 7:50 AM MST Normal

Show More Stations Show Fewer Stations